Time;durP1;ratioP1;P1;durP2;ratioP2;P2;SDS_P1;SDS_P2;PMS_P1;PMS_P2;Temp;Humidity;BMP_temperature;BMP_pressure;BME280_temperature;BME280_humidity;BME280_pressure;Samples;Min_cycle;Max_cycle;Signal;HPM_P1;HPM_P2
2021/05/17 00:02:22;;;;;;;14.80;9.02;;;17.50;73.50;;;;;;5056266;28;20373;-85
2021/05/17 00:04:49;;;;;;;18.77;9.73;;;17.50;73.10;;;;;;5049537;28;20017;-87
2021/05/17 00:07:16;;;;;;;17.25;9.73;;;17.50;73.90;;;;;;5052881;28;20025;-85
2021/05/17 00:09:42;;;;;;;12.33;8.83;;;17.40;73.80;;;;;;5055369;28;20036;-84
2021/05/17 00:12:10;;;;;;;17.60;9.48;;;17.40;74.40;;;;;;5037575;28;20363;-85
2021/05/17 00:14:36;;;;;;;16.00;9.13;;;17.40;73.50;;;;;;5037931;28;20235;-86
2021/05/17 00:17:03;;;;;;;16.70;9.10;;;17.40;74.40;;;;;;5055514;28;20021;-85
2021/05/17 00:19:29;;;;;;;18.20;10.20;;;17.30;74.70;;;;;;5056327;28;20043;-85
2021/05/17 00:21:55;;;;;;;13.38;8.88;;;17.30;75.40;;;;;;5055978;28;20029;-86
2021/05/17 00:24:21;;;;;;;13.65;9.98;;;17.20;74.00;;;;;;5054992;28;20075;-85
2021/05/17 00:26:48;;;;;;;18.90;8.52;;;17.20;73.40;;;;;;5054766;28;20532;-86
2021/05/17 00:29:14;;;;;;;24.98;10.05;;;17.30;73.40;;;;;;5037137;28;20017;-85
2021/05/17 00:31:42;;;;;;;14.18;9.60;;;17.40;73.10;;;;;;5054993;28;20079;-85
2021/05/17 00:34:08;;;;;;;21.92;10.30;;;17.40;72.90;;;;;;5054948;28;20063;-86
2021/05/17 00:36:36;;;;;;;12.93;9.57;;;17.40;73.60;;;;;;5058501;28;20009;-86
2021/05/17 00:39:07;;;;;;;16.77;10.80;;;17.30;73.60;;;;;;5063131;28;20033;-85
2021/05/17 00:41:33;;;;;;;17.63;10.65;;;17.30;73.70;;;;;;5076237;28;20025;-87
2021/05/17 00:44:00;;;;;;;17.13;10.90;;;17.20;74.20;;;;;;5064961;28;20025;-87
2021/05/17 00:46:26;;;;;;;13.43;9.90;;;17.20;74.40;;;;;;5057633;28;20024;-88
2021/05/17 00:48:53;;;;;;;15.30;11.30;;;17.10;74.20;;;;;;5063576;28;20029;-87
2021/05/17 00:51:19;;;;;;;15.70;11.27;;;17.10;74.50;;;;;;5054365;28;20021;-85
2021/05/17 00:53:45;;;;;;;18.00;11.55;;;17.00;74.60;;;;;;5044464;28;20056;-88
2021/05/17 00:56:11;;;;;;;19.83;12.75;;;17.00;75.60;;;;;;5053925;28;20059;-87
2021/05/17 00:58:37;;;;;;;14.90;11.77;;;17.00;75.60;;;;;;5057219;28;20029;-84
2021/05/17 01:01:05;;;;;;;14.55;10.98;;;17.00;75.60;;;;;;5023652;28;20034;-84
2021/05/17 01:03:31;;;;;;;17.00;11.50;;;17.00;76.00;;;;;;5055621;28;20025;-85
2021/05/17 01:05:59;;;;;;;22.93;12.37;;;16.90;75.50;;;;;;5054762;28;20021;-85
2021/05/17 01:08:32;;;;;;;17.30;11.27;;;16.90;75.60;;;;;;5058782;28;20047;-82
2021/05/17 01:11:03;;;;;;;24.27;12.60;;;17.00;75.50;;;;;;5033091;28;20021;-84
2021/05/17 01:13:29;;;;;;;16.67;11.50;;;17.00;75.20;;;;;;5055371;28;20029;-83
2021/05/17 01:15:57;;;;;;;17.30;11.95;;;17.00;75.30;;;;;;5054573;28;20035;-82
2021/05/17 01:18:23;;;;;;;60.72;18.58;;;17.00;75.30;;;;;;5054047;28;20388;-84
2021/05/17 01:20:50;;;;;;;40.28;13.85;;;17.00;75.50;;;;;;5054429;28;20036;-84
2021/05/17 01:25:51;;;;;;;43.83;16.00;;;17.00;75.90;;;;;;5055738;28;20425;-84
2021/05/17 01:28:25;;;;;;;29.15;12.75;;;16.90;75.90;;;;;;5054466;28;20033;-84
2021/05/17 01:30:57;;;;;;;20.85;12.18;;;16.90;75.90;;;;;;5053451;28;20445;-84
2021/05/17 01:33:23;;;;;;;23.63;12.60;;;16.80;75.90;;;;;;5023296;28;20438;-83
2021/05/17 01:35:51;;;;;;;37.15;15.27;;;16.80;75.90;;;;;;5052200;28;20383;-83
2021/05/17 01:38:18;;;;;;;19.33;12.13;;;16.80;76.70;;;;;;5054006;28;20021;-85
2021/05/17 01:40:47;;;;;;;20.25;13.07;;;16.80;76.40;;;;;;5053684;28;20021;-85
2021/05/17 01:43:15;;;;;;;15.90;11.50;;;16.80;75.80;;;;;;5052326;28;20020;-84
2021/05/17 01:45:43;;;;;;;22.45;11.75;;;16.90;75.90;;;;;;5053783;28;20044;-84
2021/05/17 01:48:09;;;;;;;18.05;11.27;;;16.90;74.90;;;;;;5052789;28;20104;-83
2021/05/17 01:50:37;;;;;;;15.00;11.30;;;17.00;74.70;;;;;;5053014;28;20021;-85
2021/05/17 01:53:04;;;;;;;;;;;17.00;74.20;;;;;;5039769;28;20027;-84
2021/05/17 01:55:30;;;;;;;17.23;12.43;;;17.10;74.30;;;;;;5053770;28;19905;-83
2021/05/17 01:58:18;;;;;;;16.25;12.15;;;17.10;74.00;;;;;;5053033;28;20033;-85
2021/05/17 02:00:44;;;;;;;15.90;11.43;;;17.20;74.10;;;;;;5053370;28;20025;-83
2021/05/17 02:03:10;;;;;;;18.55;11.15;;;17.20;74.50;;;;;;5035358;28;20029;-82
2021/05/17 02:05:36;;;;;;;17.75;12.10;;;17.20;74.90;;;;;;5053358;28;20051;-85
2021/05/17 02:08:04;;;;;;;17.90;11.70;;;17.20;75.30;;;;;;5060374;28;20020;-87
2021/05/17 02:10:31;;;;;;;20.98;11.23;;;17.10;75.10;;;;;;5056523;28;20425;-87
2021/05/17 02:12:57;;;;;;;22.65;12.98;;;17.10;74.50;;;;;;5054018;28;20029;-86
2021/05/17 02:15:24;;;;;;;19.00;12.52;;;17.10;75.60;;;;;;5054270;28;20363;-86
2021/05/17 02:18:08;;;;;;;19.00;10.57;;;17.20;75.80;;;;;;5053969;28;20151;-87
2021/05/17 02:20:36;;;;;;;17.20;10.05;;;17.20;74.60;;;;;;5024627;28;20029;-84
2021/05/17 02:23:04;;;;;;;22.38;10.90;;;17.30;73.60;;;;;;5055133;28;20018;-90
2021/05/17 02:25:30;;;;;;;;;;;17.40;73.40;;;;;;5057051;28;20027;-88
2021/05/17 02:27:57;;;;;;;18.48;11.27;;;17.50;73.20;;;;;;5057327;28;20369;-85
2021/05/17 02:30:24;;;;;;;18.33;10.40;;;17.50;72.30;;;;;;5041857;28;20478;-85
2021/05/17 02:32:52;;;;;;;12.55;9.23;;;17.60;71.90;;;;;;5068865;28;20032;-85
2021/05/17 02:35:22;;;;;;;18.75;10.20;;;17.70;71.50;;;;;;5063958;28;20039;-87
2021/05/17 02:37:50;;;;;;;15.57;9.40;;;17.80;71.80;;;;;;5047314;28;20033;-84
2021/05/17 02:40:18;;;;;;;18.42;9.73;;;17.90;71.60;;;;;;5064937;28;20486;-86
2021/05/17 02:42:46;;;;;;;15.98;10.43;;;18.00;71.00;;;;;;5062245;28;20024;-84
2021/05/17 02:45:14;;;;;;;15.85;9.07;;;18.10;70.20;;;;;;5076121;28;20036;-85
2021/05/17 02:47:41;;;;;;;15.32;10.75;;;18.30;70.90;;;;;;5066420;28;20017;-86
2021/05/17 02:50:10;;;;;;;11.07;9.07;;;18.30;69.50;;;;;;5061957;28;20036;-82
2021/05/17 02:52:36;;;;;;;17.48;10.63;;;18.40;69.20;;;;;;5061031;28;20025;-86
2021/05/17 02:55:14;;;;;;;14.43;9.98;;;18.60;69.00;;;;;;5057298;28;20053;-86
2021/05/17 02:57:50;;;;;;;14.98;9.65;;;18.60;67.80;;;;;;5037014;28;20494;-85
2021/05/17 03:00:20;;;;;;;12.82;10.52;;;18.70;68.60;;;;;;5050687;28;20032;-84
2021/05/17 03:03:12;;;;;;;17.20;10.45;;;18.70;68.70;;;;;;5059317;28;20079;-85
2021/05/17 03:05:41;;;;;;;11.57;9.18;;;18.80;68.60;;;;;;5058019;28;20094;-85
2021/05/17 03:08:12;;;;;;;14.93;9.82;;;18.80;67.60;;;;;;5068404;28;20013;-83
2021/05/17 03:10:46;;;;;;;12.93;8.77;;;18.90;67.90;;;;;;5064743;28;20397;-87
2021/05/17 03:13:18;;;;;;;16.50;9.57;;;18.90;67.70;;;;;;5057469;28;20025;-85
2021/05/17 03:15:46;;;;;;;12.27;7.80;;;19.00;66.70;;;;;;5056707;28;20049;-85
2021/05/17 03:18:12;;;;;;;12.38;9.80;;;19.10;66.50;;;;;;5056293;28;20092;-85
2021/05/17 03:20:39;;;;;;;12.57;8.98;;;19.10;66.50;;;;;;5049725;28;20062;-85
2021/05/17 03:23:14;;;;;;;17.70;8.75;;;19.20;66.90;;;;;;5059142;28;20048;-85
2021/05/17 03:25:47;;;;;;;10.82;8.98;;;19.30;66.60;;;;;;5056390;28;20489;-85
2021/05/17 03:28:13;;;;;;;10.07;6.78;;;19.40;66.10;;;;;;5038043;28;20045;-84
2021/05/17 03:30:39;;;;;;;9.57;6.88;;;19.50;64.20;;;;;;5056601;28;20045;-86
2021/05/17 03:33:05;;;;;;;12.15;7.22;;;19.50;63.90;;;;;;5041223;28;20051;-84
2021/05/17 03:35:31;;;;;;;12.02;7.13;;;19.60;63.90;;;;;;5055703;28;20418;-83
2021/05/17 03:37:57;;;;;;;14.07;6.72;;;19.80;63.50;;;;;;5055252;28;20370;-84
2021/05/17 03:40:23;;;;;;;8.98;6.68;;;19.80;63.30;;;;;;5054371;28;20013;-83
2021/05/17 03:42:50;;;;;;;11.80;7.25;;;20.00;62.40;;;;;;5054135;28;20413;-85
2021/05/17 03:45:16;;;;;;;16.80;7.60;;;20.00;63.10;;;;;;5056230;28;20032;-84
2021/05/17 03:47:42;;;;;;;16.00;8.80;;;20.10;63.10;;;;;;5039065;28;20407;-86
2021/05/17 03:50:10;;;;;;;14.07;7.28;;;20.10;62.70;;;;;;5055795;28;20103;-85
2021/05/17 03:52:36;;;;;;;14.73;7.53;;;20.20;62.40;;;;;;5055646;28;20080;-85
2021/05/17 03:55:02;;;;;;;12.27;7.50;;;20.20;61.40;;;;;;5038165;28;20123;-86
2021/05/17 03:57:28;;;;;;;13.03;7.13;;;20.30;62.00;;;;;;5057246;28;20028;-86
2021/05/17 03:59:54;;;;;;;12.27;7.32;;;20.30;61.80;;;;;;5057686;28;20470;-84
2021/05/17 04:02:22;;;;;;;10.75;6.40;;;20.40;61.50;;;;;;5038220;28;20031;-85
2021/05/17 04:04:57;;;;;;;13.93;7.55;;;20.40;61.30;;;;;;5056070;28;20029;-86
2021/05/17 04:15:33;;;;;;;13.70;6.50;;;20.80;59.60;;;;;;5057018;28;20044;-84
2021/05/17 04:17:59;;;;;;;11.57;7.28;;;20.80;60.20;;;;;;5058557;28;20362;-87
2021/05/17 04:20:25;;;;;;;9.43;5.90;;;21.00;60.00;;;;;;5057987;28;20025;-86
2021/05/17 04:22:51;;;;;;;10.02;6.28;;;21.00;59.20;;;;;;5053929;28;20017;-86
2021/05/17 04:25:16;;;;;;;9.88;6.28;;;21.00;58.30;;;;;;5042997;28;20111;-86
2021/05/17 04:27:42;;;;;;;11.27;6.00;;;21.10;58.30;;;;;;5055348;28;20041;-86
2021/05/17 04:30:09;;;;;;;11.65;6.20;;;21.10;58.40;;;;;;5055490;28;20021;-87
2021/05/17 04:32:34;;;;;;;8.38;5.43;;;21.20;58.60;;;;;;5055323;28;20029;-85
2021/05/17 04:35:00;;;;;;;11.88;5.75;;;21.30;56.80;;;;;;5054774;28;20031;-85
2021/05/17 04:37:26;;;;;;;12.25;6.70;;;21.40;57.00;;;;;;5054903;28;20028;-84
2021/05/17 04:39:52;;;;;;;18.58;7.13;;;21.40;56.20;;;;;;5054688;28;20021;-85
2021/05/17 04:42:18;;;;;;;12.13;5.68;;;21.60;56.90;;;;;;5055131;28;20056;-85
2021/05/17 04:44:44;;;;;;;13.27;6.00;;;21.70;56.30;;;;;;5056805;28;20025;-86
2021/05/17 04:47:10;;;;;;;11.65;6.18;;;21.80;56.30;;;;;;5064403;28;20047;-85
2021/05/17 04:49:36;;;;;;;14.90;5.63;;;21.90;55.80;;;;;;5060092;28;20028;-86
2021/05/17 04:52:02;;;;;;;9.85;4.82;;;21.90;55.20;;;;;;5068881;28;20025;-85
2021/05/17 04:54:39;;;;;;;6.93;4.70;;;22.00;55.10;;;;;;5059551;28;20040;-88
2021/05/17 04:57:05;;;;;;;8.63;4.50;;;22.30;54.60;;;;;;5056938;28;20081;-86
2021/05/17 04:59:30;;;;;;;12.43;5.55;;;22.80;53.80;;;;;;5059383;28;20036;-85
2021/05/17 05:01:56;;;;;;;10.65;4.35;;;23.50;52.10;;;;;;5058463;28;20025;-85
2021/05/17 05:04:22;;;;;;;8.07;4.30;;;24.50;50.00;;;;;;5057993;28;20482;-86
2021/05/17 05:06:48;;;;;;;9.18;3.88;;;25.30;46.60;;;;;;5056025;28;20115;-86
2021/05/17 05:09:14;;;;;;;9.95;4.30;;;25.70;45.90;;;;;;5059214;28;20053;-83
2021/05/17 05:11:39;;;;;;;15.40;8.10;;;26.30;44.10;;;;;;5057763;28;20036;-86
2021/05/17 05:14:05;;;;;;;9.48;4.30;;;26.40;44.00;;;;;;5055245;28;20492;-87
2021/05/17 05:16:31;;;;;;;9.55;4.20;;;26.80;43.10;;;;;;5055398;28;20474;-86
2021/05/17 05:18:57;;;;;;;6.63;4.07;;;27.10;41.80;;;;;;5055517;28;20025;-88
2021/05/17 05:21:23;;;;;;;7.57;3.58;;;27.10;41.00;;;;;;5055248;28;20032;-87
2021/05/17 05:23:49;;;;;;;9.35;3.75;;;26.90;41.60;;;;;;5056931;28;20021;-88
2021/05/17 05:31:44;;;;;;;4.97;3.78;;;28.20;40.00;;;;;;5064638;28;20036;-89
2021/05/17 05:34:10;;;;;;;6.03;4.10;;;29.10;39.00;;;;;;5064318;28;20059;-87
2021/05/17 05:36:36;;;;;;;9.90;5.35;;;29.40;38.10;;;;;;5058336;28;20021;-87
2021/05/17 05:39:03;;;;;;;5.78;3.42;;;29.90;37.90;;;;;;5054709;28;20051;-85
2021/05/17 05:41:29;;;;;;;;;;;30.30;36.70;;;;;;5056069;28;20029;-86
2021/05/17 05:43:54;;;;;;;8.40;4.20;;;30.20;37.30;;;;;;5034294;28;19996;-87
2021/05/17 05:46:21;;;;;;;7.35;4.32;;;29.90;37.60;;;;;;5036977;28;20049;-87
2021/05/17 05:48:47;;;;;;;4.78;3.80;;;30.20;36.90;;;;;;5057237;28;20369;-87
2021/05/17 05:51:18;;;;;;;5.97;4.13;;;30.50;36.30;;;;;;5046618;28;20078;-88
2021/05/17 05:53:44;;;;;;;6.35;3.03;;;30.90;36.10;;;;;;5055606;28;20033;-87
2021/05/17 05:56:11;;;;;;;9.02;3.53;;;31.80;35.00;;;;;;5041035;28;20009;-87
2021/05/17 05:58:37;;;;;;;9.50;4.30;;;32.80;34.60;;;;;;5054716;28;20052;-89
2021/05/17 06:01:04;;;;;;;10.27;3.92;;;33.50;33.60;;;;;;5055971;28;20017;-88
2021/05/17 06:03:29;;;;;;;8.68;3.88;;;33.80;33.00;;;;;;5036098;28;20338;-89
2021/05/17 06:05:55;;;;;;;7.80;3.33;;;33.40;33.20;;;;;;5055075;28;20056;-90
2021/05/17 06:08:21;;;;;;;12.77;4.53;;;34.00;32.80;;;;;;5054946;28;20411;-87
2021/05/17 06:10:48;;;;;;;6.45;3.63;;;34.40;32.10;;;;;;5056155;28;20043;-87
2021/05/17 06:13:14;;;;;;;9.00;3.10;;;34.30;31.90;;;;;;5055847;28;20075;-87
2021/05/17 06:15:43;;;;;;;6.68;3.70;;;35.00;31.60;;;;;;5060345;28;20029;-87
2021/05/17 06:18:10;;;;;;;9.48;2.97;;;34.90;31.20;;;;;;5056064;28;20021;-86
2021/05/17 06:20:36;;;;;;;12.65;3.50;;;34.70;31.40;;;;;;5054496;28;20037;-87
2021/05/17 06:23:02;;;;;;;6.85;3.30;;;35.10;31.20;;;;;;5053601;28;20013;-87
2021/05/17 06:25:29;;;;;;;10.57;3.65;;;35.90;30.80;;;;;;5043931;28;20047;-88
2021/05/17 06:27:55;;;;;;;7.65;3.72;;;36.90;30.00;;;;;;5039929;28;20116;-87
2021/05/17 06:30:21;;;;;;;6.95;3.00;;;37.30;29.50;;;;;;5054446;28;20029;-88
2021/05/17 06:32:48;;;;;;;9.05;2.70;;;36.60;29.80;;;;;;5052301;28;20471;-88
2021/05/17 06:35:22;;;;;;;7.13;3.63;;;36.00;29.80;;;;;;5053541;28;20040;-87
2021/05/17 06:37:48;;;;;;;7.10;2.55;;;36.10;30.00;;;;;;5053697;28;20021;-87
2021/05/17 06:40:14;;;;;;;7.82;2.25;;;36.30;29.70;;;;;;5053389;28;20148;-87
2021/05/17 06:42:40;;;;;;;;;;;36.20;29.90;;;;;;5055412;28;20029;-85
2021/05/17 06:45:07;;;;;;;3.65;2.45;;;36.20;29.90;;;;;;5053761;28;20347;-88
2021/05/17 06:47:33;;;;;;;;;;;36.10;29.60;;;;;;5054508;28;20078;-86
2021/05/17 06:50:06;;;;;;;6.32;3.03;;;36.20;30.50;;;;;;5051163;28;19905;-91
2021/05/17 06:52:32;;;;;;;8.48;3.40;;;37.50;29.30;;;;;;5066653;28;20024;-85
2021/05/17 06:55:04;;;;;;;10.05;3.15;;;38.00;28.80;;;;;;5061032;28;20436;-87
2021/05/17 07:00:39;;;;;;;9.93;3.30;;;38.50;28.30;;;;;;5054601;28;20059;-86
2021/05/17 07:03:08;;;;;;;6.55;4.10;;;38.70;28.40;;;;;;5047175;28;20032;-87
2021/05/17 07:05:40;;;;;;;6.13;3.10;;;38.20;28.20;;;;;;5047150;28;20021;-87
2021/05/17 07:13:19;;;;;;;6.20;2.20;;;37.30;28.80;;;;;;5050228;28;20505;-87
2021/05/17 07:15:45;;;;;;;8.52;3.55;;;37.00;28.80;;;;;;5038584;28;20037;-85
2021/05/17 07:18:12;;;;;;;9.27;2.78;;;37.20;28.60;;;;;;5038450;28;20013;-86
2021/05/17 07:26:03;;;;;;;7.18;2.92;;;39.90;27.70;;;;;;5057324;28;20032;-88
2021/05/17 07:28:29;;;;;;;8.82;2.40;;;39.30;27.20;;;;;;5034809;28;20029;-89
2021/05/17 07:30:57;;;;;;;8.82;3.55;;;39.00;27.20;;;;;;5039258;28;20017;-87
2021/05/17 07:33:23;;;;;;;5.68;3.58;;;39.00;27.50;;;;;;5058226;28;20044;-88
2021/05/17 07:35:49;;;;;;;6.72;3.97;;;39.00;27.40;;;;;;5057842;28;20028;-87
2021/05/17 07:38:15;;;;;;;5.38;2.40;;;38.50;27.60;;;;;;5060657;28;20069;-88
2021/05/17 07:40:40;;;;;;;7.18;2.63;;;38.00;27.90;;;;;;5063264;28;20025;-89
2021/05/17 07:43:06;;;;;;;6.57;3.65;;;37.90;27.90;;;;;;5058530;28;20029;-88
2021/05/17 07:45:32;;;;;;;8.48;3.97;;;37.60;28.20;;;;;;5061503;28;20032;-89
2021/05/17 07:47:58;;;;;;;4.90;2.33;;;38.00;28.40;;;;;;5063054;28;20107;-90
2021/05/17 07:50:24;;;;;;;5.65;2.75;;;37.80;28.30;;;;;;5056988;28;20021;-88
2021/05/17 07:52:50;;;;;;;5.20;2.30;;;37.90;28.30;;;;;;5056458;28;20028;-87
2021/05/17 07:55:20;;;;;;;8.20;2.50;;;38.20;28.20;;;;;;5039710;28;20028;-87
2021/05/17 07:57:46;;;;;;;5.22;2.30;;;39.00;28.10;;;;;;5056369;28;20040;-87
2021/05/17 08:00:13;;;;;;;6.75;2.38;;;39.90;27.00;;;;;;5056339;28;20029;-88
2021/05/17 08:02:39;;;;;;;7.78;2.40;;;40.10;27.00;;;;;;5057188;28;20017;-87
2021/05/17 08:05:06;;;;;;;6.47;2.38;;;41.20;26.80;;;;;;5040572;28;20051;-88
2021/05/17 08:07:38;;;;;;;7.97;2.53;;;41.70;26.30;;;;;;5055610;28;20126;-88
2021/05/17 08:10:05;;;;;;;6.07;2.35;;;40.50;26.20;;;;;;5056083;28;20049;-88
2021/05/17 08:12:31;;;;;;;5.50;2.63;;;39.70;27.00;;;;;;5038561;28;20153;-88
2021/05/17 08:14:58;;;;;;;11.57;3.05;;;39.60;27.40;;;;;;5055558;28;20028;-90
2021/05/17 08:17:30;;;;;;;5.40;2.72;;;39.90;27.50;;;;;;5056565;28;20076;-88
2021/05/17 08:19:56;;;;;;;5.53;2.42;;;40.90;26.80;;;;;;5044599;28;20102;-89
2021/05/17 08:22:22;;;;;;;7.35;2.90;;;40.40;26.20;;;;;;5066568;28;20470;-88
2021/05/17 08:24:47;;;;;;;6.80;2.50;;;39.70;26.80;;;;;;5052515;28;20037;-88
2021/05/17 08:27:13;;;;;;;5.05;2.10;;;39.60;27.00;;;;;;5061408;28;20052;-88
2021/05/17 08:29:39;;;;;;;5.10;2.53;;;39.00;26.90;;;;;;5064001;28;20033;-87
2021/05/17 08:32:10;;;;;;;4.93;2.17;;;38.60;27.40;;;;;;5059870;28;20096;-89
2021/05/17 08:34:36;;;;;;;5.82;2.60;;;38.40;27.70;;;;;;5056531;28;20033;-89
2021/05/17 08:37:04;;;;;;;4.10;2.80;;;39.10;27.70;;;;;;5055506;28;20017;-86
2021/05/17 08:39:29;;;;;;;10.27;2.80;;;39.50;27.10;;;;;;5055510;28;20029;-87
2021/05/17 08:41:59;;;;;;;7.60;2.83;;;40.10;27.10;;;;;;5055562;28;20021;-86
2021/05/17 08:44:26;;;;;;;9.63;3.17;;;40.50;26.40;;;;;;5044560;28;20048;-87
2021/05/17 08:46:52;;;;;;;6.25;2.50;;;40.10;26.40;;;;;;5039687;28;20020;-87
2021/05/17 08:49:19;;;;;;;5.30;2.50;;;39.50;26.60;;;;;;5048518;28;20067;-87
2021/05/17 08:51:46;;;;;;;11.05;2.58;;;39.70;27.10;;;;;;5058050;28;20029;-85
2021/05/17 08:54:13;;;;;;;7.07;2.63;;;39.50;26.90;;;;;;5064322;28;20036;-87
2021/05/17 08:56:43;;;;;;;3.60;1.92;;;39.70;26.70;;;;;;5046941;28;20052;-87
2021/05/17 08:59:11;;;;;;;6.25;1.70;;;39.50;26.50;;;;;;5047102;28;20044;-89
2021/05/17 09:01:37;;;;;;;5.05;2.15;;;38.40;27.10;;;;;;5057895;28;20494;-89
2021/05/17 09:04:06;;;;;;;5.93;2.35;;;38.40;27.30;;;;;;5049215;28;20043;-88
2021/05/17 09:06:54;;;;;;;7.65;2.30;;;38.70;27.20;;;;;;5055393;28;20113;-88
2021/05/17 09:09:26;;;;;;;7.95;2.42;;;38.90;27.00;;;;;;5056938;28;20029;-88
2021/05/17 09:11:59;;;;;;;9.35;1.95;;;38.80;27.00;;;;;;5059879;28;20021;-87
2021/05/17 09:14:26;;;;;;;7.55;3.20;;;39.40;27.40;;;;;;5055931;28;20555;-87
2021/05/17 09:17:07;;;;;;;4.70;2.80;;;40.00;26.40;;;;;;5055507;28;20021;-88
2021/05/17 09:19:34;;;;;;;7.00;2.75;;;39.70;26.40;;;;;;5054626;28;20029;-88
2021/05/17 09:22:18;;;;;;;7.72;2.70;;;38.90;26.70;;;;;;5057528;28;20390;-88
2021/05/17 09:24:52;;;;;;;11.98;3.25;;;39.90;26.70;;;;;;5054668;28;20040;-89
2021/05/17 09:27:26;;;;;;;8.35;3.05;;;41.40;26.10;;;;;;5057602;28;20045;-88
2021/05/17 09:29:56;;;;;;;10.27;3.03;;;41.90;25.80;;;;;;5055047;28;20020;-87
2021/05/17 09:32:29;;;;;;;6.38;2.50;;;41.70;25.70;;;;;;5055000;28;20024;-88
2021/05/17 09:35:05;;;;;;;6.10;2.75;;;41.60;25.80;;;;;;5054930;28;20509;-87
2021/05/17 09:37:56;;;;;;;4.55;2.78;;;41.70;25.60;;;;;;5035544;28;20110;-88
2021/05/17 09:40:28;;;;;;;5.70;2.67;;;40.70;25.60;;;;;;5055673;28;20025;-86
2021/05/17 09:43:06;;;;;;;8.02;2.50;;;39.70;26.20;;;;;;5056127;28;20500;-87
2021/05/17 09:45:34;;;;;;;3.55;2.33;;;40.60;26.30;;;;;;5042367;28;20025;-89
2021/05/17 09:48:02;;;;;;;5.93;2.80;;;40.10;26.20;;;;;;5037019;28;20025;-89
2021/05/17 09:50:28;;;;;;;5.60;2.45;;;39.80;26.40;;;;;;5036795;28;20025;-88
2021/05/17 09:52:53;;;;;;;5.53;1.95;;;38.90;26.60;;;;;;5057826;28;20360;-87
2021/05/17 09:59:10;;;;;;;8.98;3.00;;;38.80;27.60;;;;;;5044117;28;20392;-88
2021/05/17 10:01:36;;;;;;;13.73;3.28;;;38.40;27.40;;;;;;5005608;28;20057;-87
2021/05/17 10:04:06;;;;;;;8.45;4.57;;;38.10;27.40;;;;;;5055409;28;20033;-90
2021/05/17 10:06:32;;;;;;;9.48;3.83;;;38.60;27.40;;;;;;5056627;28;20025;-88
2021/05/17 10:08:59;;;;;;;;;;;38.20;27.40;;;;;;5024577;28;20029;-90
2021/05/17 10:11:26;;;;;;;7.78;2.83;;;37.90;34.30;;;;;;5054537;28;20004;-90
2021/05/17 10:13:53;;;;;;;4.43;2.55;;;37.60;34.20;;;;;;5055375;28;20023;-88
2021/05/17 10:16:19;;;;;;;;;;;37.40;28.50;;;;;;5059555;28;20021;-90
2021/05/17 10:18:46;;;;;;;4.75;2.53;;;37.20;28.10;;;;;;5060426;28;19905;-89
2021/05/17 10:21:16;;;;;;;7.28;3.08;;;37.00;30.60;;;;;;5055852;28;20087;-90
2021/05/17 10:23:42;;;;;;;9.02;2.90;;;36.70;28.50;;;;;;5054873;28;20033;-88
2021/05/17 10:26:20;;;;;;;6.03;3.25;;;35.70;29.10;;;;;;5053737;28;20071;-88
2021/05/17 10:29:02;;;;;;;12.68;3.28;;;34.20;30.40;;;;;;5055339;28;20044;-89
2021/05/17 10:31:30;;;;;;;10.68;2.70;;;;;;;;;;5035635;28;20135;-88
2021/05/17 10:34:08;;;;;;;10.48;4.20;;;32.60;32.10;;;;;;5045268;28;20107;-90
2021/05/17 10:36:57;;;;;;;7.18;3.45;;;32.40;33.00;;;;;;5058889;28;20025;-90
2021/05/17 10:39:46;;;;;;;12.75;3.85;;;31.80;33.60;;;;;;5041522;28;20478;-87
2021/05/17 10:48:08;;;;;;;13.32;4.93;;;30.90;35.10;;;;;;5025444;28;20036;-89
2021/05/17 10:50:34;;;;;;;18.27;4.43;;;30.90;35.70;;;;;;5038083;28;20033;-88
2021/05/17 10:53:00;;;;;;;11.07;4.07;;;31.00;35.30;;;;;;5075822;28;20056;-86
2021/05/17 10:55:33;;;;;;;13.93;4.20;;;31.10;35.40;;;;;;5068316;28;20037;-88
2021/05/17 11:00:32;;;;;;;14.60;3.75;;;30.90;34.40;;;;;;5073985;28;20056;-87
2021/05/17 11:03:18;;;;;;;11.82;5.07;;;30.60;35.80;;;;;;5069632;28;20067;-87
2021/05/17 11:05:45;;;;;;;10.95;4.50;;;30.50;36.00;;;;;;5046739;28;20041;-88
2021/05/17 11:08:13;;;;;;;6.77;3.63;;;30.40;35.50;;;;;;5057865;28;20104;-88
2021/05/17 11:10:49;;;;;;;10.43;3.70;;;30.30;35.60;;;;;;5059157;28;20053;-84
2021/05/17 11:13:19;;;;;;;9.05;3.65;;;30.20;35.80;;;;;;5048858;28;20020;-83
2021/05/17 11:16:00;;;;;;;13.30;4.65;;;30.10;35.90;;;;;;5058503;28;20029;-88
2021/05/17 11:18:27;;;;;;;15.40;5.22;;;30.20;36.10;;;;;;5045650;28;20017;-87
2021/05/17 11:21:02;;;;;;;15.15;5.57;;;30.20;35.80;;;;;;5061506;28;20439;-86
2021/05/17 11:23:52;;;;;;;14.98;4.50;;;30.30;36.40;;;;;;5063919;28;20092;-88
2021/05/17 11:27:00;;;;;;;7.47;3.65;;;30.20;36.10;;;;;;5050569;28;20033;-88
2021/05/17 11:30:26;;;;;;;6.47;4.20;;;30.10;36.20;;;;;;5058856;28;20017;-88
2021/05/17 11:33:16;;;;;;;10.95;4.53;;;30.10;36.50;;;;;;5061330;28;20033;-87
2021/05/17 11:36:20;;;;;;;6.45;3.78;;;30.00;36.10;;;;;;5040477;28;20025;-88
2021/05/17 11:39:07;;;;;;;13.25;4.88;;;30.00;36.10;;;;;;5055820;28;20087;-87
2021/05/17 11:41:44;;;;;;;5.95;3.97;;;30.00;36.30;;;;;;5057313;28;20031;-87
2021/05/17 11:44:16;;;;;;;7.28;4.20;;;30.00;36.10;;;;;;5056542;28;20035;-87
2021/05/17 11:46:49;;;;;;;9.55;3.97;;;30.00;36.60;;;;;;5056623;28;20061;-88
2021/05/17 11:49:18;;;;;;;6.93;3.83;;;30.00;36.20;;;;;;5057055;28;20032;-89
2021/05/17 11:51:52;;;;;;;12.70;4.47;;;29.90;36.10;;;;;;5056315;28;20029;-89
2021/05/17 11:54:20;;;;;;;9.82;4.80;;;29.90;35.90;;;;;;5056795;28;20447;-86
2021/05/17 11:56:53;;;;;;;6.85;3.75;;;29.90;35.60;;;;;;5046453;28;20037;-88
2021/05/17 11:59:23;;;;;;;12.48;4.35;;;29.90;35.50;;;;;;5057132;28;20480;-87
2021/05/17 12:01:58;;;;;;;11.60;4.68;;;29.90;36.30;;;;;;5055549;28;20021;-87
2021/05/17 12:04:29;;;;;;;8.40;4.03;;;29.90;36.10;;;;;;5042270;28;20036;-88
2021/05/17 12:06:56;;;;;;;11.25;4.75;;;29.90;36.30;;;;;;5056629;28;20431;-88
2021/05/17 12:09:55;;;;;;;10.38;4.45;;;29.90;35.90;;;;;;5057557;28;20025;-88
2021/05/17 12:12:22;;;;;;;8.65;4.47;;;29.90;36.20;;;;;;5040745;28;20048;-88
2021/05/17 12:14:50;;;;;;;7.85;4.82;;;29.90;36.00;;;;;;5061120;28;20022;-88
2021/05/17 12:17:27;;;;;;;12.15;4.88;;;30.00;35.80;;;;;;5060199;28;20028;-88
2021/05/17 12:20:05;;;;;;;11.27;4.22;;;30.00;35.60;;;;;;5057071;28;20024;-86
2021/05/17 12:22:37;;;;;;;6.10;3.85;;;30.10;35.20;;;;;;5056648;28;20031;-87
2021/05/17 12:25:08;;;;;;;12.98;4.30;;;30.10;35.60;;;;;;5056398;28;20033;-87
2021/05/17 12:27:36;;;;;;;10.48;3.90;;;30.10;35.70;;;;;;5055822;28;20049;-87
2021/05/17 12:30:08;;;;;;;14.48;4.95;;;30.10;35.90;;;;;;5055583;28;20094;-88
2021/05/17 12:32:37;;;;;;;12.85;4.90;;;30.10;36.20;;;;;;5058494;28;20171;-87
2021/05/17 12:35:11;;;;;;;10.82;4.80;;;30.20;35.70;;;;;;5052681;28;20025;-86
2021/05/17 12:37:46;;;;;;;12.10;3.97;;;30.30;34.10;;;;;;5046686;28;20032;-85
2021/05/17 12:40:25;;;;;;;12.45;5.93;;;30.40;33.40;;;;;;5037857;28;20017;-87
2021/05/17 12:43:10;;;;;;;10.23;4.78;;;30.50;33.50;;;;;;5056144;28;20029;-88
2021/05/17 12:45:58;;;;;;;13.30;4.82;;;30.50;33.10;;;;;;5042895;28;20029;-86
2021/05/17 12:48:31;;;;;;;14.43;5.60;;;30.60;33.20;;;;;;5037550;28;20021;-86
2021/05/17 12:51:14;;;;;;;15.27;5.03;;;30.60;32.90;;;;;;5057098;28;20021;-87
2021/05/17 12:53:40;;;;;;;12.38;5.30;;;30.80;33.10;;;;;;5057745;28;20021;-87
2021/05/17 12:56:06;;;;;;;15.23;5.70;;;30.90;32.80;;;;;;5061215;28;20029;-84
2021/05/17 12:58:35;;;;;;;11.63;5.25;;;30.90;32.00;;;;;;5061046;28;20453;-87
2021/05/17 13:01:11;;;;;;;11.55;4.68;;;30.90;32.60;;;;;;5058092;28;20027;-86
2021/05/17 13:03:46;;;;;;;17.45;5.47;;;30.90;32.00;;;;;;5071583;28;20040;-88
2021/05/17 13:06:23;;;;;;;11.95;5.00;;;30.80;32.10;;;;;;5066748;28;20021;-88
2021/05/17 13:09:18;;;;;;;13.00;4.65;;;30.80;31.70;;;;;;5057133;28;20029;-89
2021/05/17 13:11:44;;;;;;;14.55;5.00;;;30.80;31.90;;;;;;5017498;28;20033;-88
2021/05/17 13:14:12;;;;;;;15.20;5.45;;;30.70;32.00;;;;;;5038076;28;20422;-86
2021/05/17 13:16:42;;;;;;;15.75;5.10;;;30.60;31.80;;;;;;5056681;28;20170;-88
2021/05/17 13:30:57;;;;;;;12.48;5.68;;;30.70;31.80;;;;;;5054631;28;20051;-86
2021/05/17 13:33:30;;;;;;;15.77;7.13;;;30.70;31.90;;;;;;5055085;28;20021;-87
2021/05/17 13:36:03;;;;;;;15.02;5.97;;;30.60;32.10;;;;;;5056939;28;20029;-89
2021/05/17 13:38:34;;;;;;;14.93;5.82;;;30.80;32.10;;;;;;5055055;28;20028;-88
2021/05/17 13:41:01;;;;;;;16.67;5.95;;;31.70;31.50;;;;;;5054767;28;20077;-86
2021/05/17 13:43:28;;;;;;;12.25;4.90;;;32.80;30.40;;;;;;5054564;28;20067;-86
2021/05/17 13:45:54;;;;;;;13.63;5.80;;;33.70;30.00;;;;;;5043074;28;20120;-87
2021/05/17 13:48:20;;;;;;;14.98;5.28;;;34.20;29.20;;;;;;5054313;28;20021;-89